Time;durP1;ratioP1;P1;durP2;ratioP2;P2;SDS_P1;SDS_P2;PMS_P1;PMS_P2;Temp;Humidity;BMP_temperature;BMP_pressure;BME280_temperature;BME280_humidity;BME280_pressure;Samples;Min_cycle;Max_cycle;Signal;HPM_P1;HPM_P2
2022/05/23 00:01:13;;;;;;;0.43;0.43;;;;;;;19.05;50.75;96544.31;10182793;29;20462;-82
2022/05/23 00:06:33;;;;;;;0.63;0.63;;;;;;;19.05;50.62;96541.59;10182625;29;20084;-82
2022/05/23 00:11:53;;;;;;;1.00;0.80;;;;;;;19.05;50.73;96535.38;10182631;29;20058;-82
2022/05/23 00:17:13;;;;;;;1.25;0.85;;;;;;;19.05;50.89;96520.00;10167646;29;20056;-82
2022/05/23 00:22:32;;;;;;;1.02;0.70;;;;;;;19.05;50.97;96519.19;10175484;29;20579;-82
2022/05/23 00:27:52;;;;;;;0.98;0.70;;;;;;;19.03;50.76;96506.00;10165174;29;20052;-81
2022/05/23 00:38:53;;;;;;;0.70;0.68;;;;;;;19.02;50.96;96501.75;10163266;29;20062;-81
2022/05/23 00:44:13;;;;;;;0.90;0.60;;;;;;;19.04;51.02;96502.22;10174900;29;20052;-81
2022/05/23 00:49:35;;;;;;;0.73;0.50;;;;;;;19.02;50.87;96493.66;10189654;29;20508;-83
2022/05/23 00:54:56;;;;;;;0.90;0.70;;;;;;;19.02;50.80;96490.94;10177907;29;20482;-82
2022/05/23 01:00:17;;;;;;;0.60;0.60;;;;;;;19.02;50.91;96471.25;10190977;29;20059;-81
2022/05/23 01:05:38;;;;;;;0.70;0.70;;;;;;;19.01;50.96;96465.06;10165152;29;20052;-82
2022/05/23 01:10:57;;;;;;;1.10;0.73;;;;;;;19.01;50.81;96465.06;10178501;29;20060;-82
2022/05/23 01:16:17;;;;;;;0.75;0.52;;;;;;;19.02;50.88;96457.75;10164407;29;20048;-82
2022/05/23 01:22:05;;;;;;;0.60;0.50;;;;;;;19.02;51.01;96460.47;10172388;29;20114;-82
2022/05/23 01:27:29;;;;;;;0.63;0.63;;;;;;;19.00;51.08;96452.69;10177463;29;20052;-82
2022/05/23 01:32:49;;;;;;;0.70;0.60;;;;;;;19.01;51.05;96448.06;10180616;29;20052;-81
2022/05/23 01:38:09;;;;;;;0.52;0.50;;;;;;;19.00;51.06;96447.28;10177195;29;20063;-82
2022/05/23 01:43:43;;;;;;;1.05;0.55;;;;;;;18.99;51.13;96443.00;10164210;29;20052;-81
2022/05/23 01:49:22;;;;;;;0.97;0.60;;;;;;;18.99;51.09;96445.69;10177953;29;20424;-82
2022/05/23 01:54:41;;;;;;;1.13;0.80;;;;;;;18.99;51.05;96440.28;10177596;29;20307;-81
2022/05/23 02:05:41;;;;;;;0.65;0.60;;;;;;;19.00;51.13;96465.41;10182101;29;20083;-82
2022/05/23 02:11:01;;;;;;;0.70;0.70;;;;;;;18.99;51.21;96467.28;10163508;29;20059;-81
2022/05/23 02:16:25;;;;;;;0.82;0.73;;;;;;;18.97;51.16;96461.44;10169857;29;20083;-81
2022/05/23 02:21:52;;;;;;;0.55;0.50;;;;;;;18.98;51.20;96449.53;10166870;29;20507;-82
2022/05/23 02:27:14;;;;;;;0.60;0.60;;;;;;;18.98;51.06;96448.75;10152133;29;20058;-81
2022/05/23 02:32:35;;;;;;;0.70;0.65;;;;;;;18.95;51.10;96451.00;10176180;29;20099;-82
2022/05/23 02:38:01;;;;;;;0.70;0.57;;;;;;;18.96;51.04;96446.38;10165463;29;20052;-81
2022/05/23 02:43:21;;;;;;;0.73;0.63;;;;;;;18.95;50.98;96456.38;10178893;29;20052;-82
2022/05/23 02:48:43;;;;;;;0.55;0.55;;;;;;;18.95;51.07;96445.59;10177902;29;20060;-82
2022/05/23 02:54:03;;;;;;;0.52;0.50;;;;;;;18.95;51.02;96429.38;10175750;29;20108;-82
2022/05/23 02:59:26;;;;;;;0.60;0.60;;;;;;;18.96;51.04;96438.28;10181435;29;20056;-82
2022/05/23 03:04:54;;;;;;;0.73;0.70;;;;;;;18.95;51.01;96433.97;10178098;29;20104;-82
2022/05/23 03:10:14;;;;;;;0.55;0.55;;;;;;;18.94;51.04;96427.00;10174949;29;20053;-81
2022/05/23 03:15:33;;;;;;;0.60;0.60;;;;;;;18.95;51.21;96428.59;10180766;29;20107;-81
2022/05/23 03:21:00;;;;;;;0.50;0.50;;;;;;;18.92;51.04;96424.63;10175056;29;20070;-82
2022/05/23 03:32:03;;;;;;;0.68;0.57;;;;;;;18.93;51.16;96418.13;10183161;29;20492;-81
2022/05/23 03:37:24;;;;;;;0.50;0.50;;;;;;;18.93;51.02;96431.63;10169237;29;20056;-81
2022/05/23 03:42:44;;;;;;;0.90;0.50;;;;;;;18.93;50.97;96430.81;10182377;29;20056;-81
2022/05/23 03:48:05;;;;;;;0.65;0.60;;;;;;;18.93;51.10;96436.22;10181753;29;20482;-82
2022/05/23 03:53:24;;;;;;;0.80;0.60;;;;;;;18.94;50.95;96440.50;10181938;29;20052;-82
2022/05/23 03:58:50;;;;;;;0.98;0.80;;;;;;;18.95;51.04;96439.38;10170069;29;20062;-81
2022/05/23 04:04:18;;;;;;;0.60;0.60;;;;;;;18.97;51.03;96431.75;10161230;29;20056;-81
2022/05/23 04:09:57;;;;;;;0.85;0.70;;;;;;;18.98;51.25;96410.97;10164199;29;20071;-82
2022/05/23 04:15:21;;;;;;;0.82;0.80;;;;;;;18.99;51.58;96413.31;10169517;29;20102;-82
2022/05/23 04:20:40;;;;;;;0.98;0.75;;;;;;;19.02;51.63;96426.16;10177466;29;20048;-82
2022/05/23 04:26:09;;;;;;;0.68;0.68;;;;;;;19.03;51.37;96435.03;10166336;29;20048;-82
2022/05/23 04:31:29;;;;;;;0.70;0.70;;;;;;;19.04;51.50;96423.13;10167607;29;20053;-82
2022/05/23 04:36:59;;;;;;;0.60;0.50;;;;;;;19.04;51.42;96421.22;10176935;29;20052;-82
2022/05/23 04:42:30;;;;;;;0.82;0.55;;;;;;;19.05;51.43;96417.41;10192263;29;20061;-81
2022/05/23 04:53:28;;;;;;;3.20;0.80;;;;;;;19.06;51.40;96413.56;10154895;29;20057;-81
2022/05/23 04:59:05;;;;;;;1.52;0.80;;;;;;;19.05;51.72;96417.41;10183799;29;20064;-81
2022/05/23 05:04:25;;;;;;;3.75;1.60;;;;;;;19.05;51.28;96412.00;10174663;29;20056;-82
2022/05/23 05:09:44;;;;;;;4.97;2.05;;;;;;;18.95;48.02;96417.78;10181383;29;20052;-82
2022/05/23 05:15:04;;;;;;;3.88;1.73;;;;;;;18.76;46.69;96400.13;10187662;29;20048;-82
2022/05/23 05:20:24;;;;;;;2.20;1.40;;;;;;;18.62;46.07;96394.19;10154701;29;20428;-82
2022/05/23 05:26:05;;;;;;;4.88;1.45;;;;;;;18.52;46.19;96378.38;10160238;29;20134;-81
2022/05/23 05:31:48;;;;;;;1.92;1.55;;;;;;;18.53;46.61;96375.34;10175887;29;20508;-82
2022/05/23 05:37:16;;;;;;;1.45;1.30;;;;;;;18.53;46.34;96361.88;10161185;29;20707;-82
2022/05/23 05:42:42;;;;;;;2.05;1.40;;;;;;;18.57;47.40;96368.19;10184814;29;20052;-81
2022/05/23 05:48:03;;;;;;;1.70;1.30;;;;;;;18.63;47.36;96363.38;10176278;29;20547;-82
2022/05/23 05:53:31;;;;;;;2.25;1.40;;;;;;;18.68;47.53;96360.50;10181765;29;20080;-82
2022/05/23 05:58:52;;;;;;;3.58;1.40;;;;;;;18.71;47.82;96359.81;10181077;29;20460;-81
2022/05/23 06:04:12;;;;;;;2.42;1.30;;;;;;;18.73;48.06;96362.19;10180098;29;20571;-82
2022/05/23 06:15:11;;;;;;;2.80;1.20;;;;;;;18.75;48.24;96376.94;10167316;29;20127;-80
2022/05/23 06:20:31;;;;;;;1.63;1.20;;;;;;;18.76;48.55;96367.72;10169347;29;20307;-81
2022/05/23 06:25:51;;;;;;;2.33;1.30;;;;;;;18.77;48.45;96363.91;10185295;29;20056;-81
2022/05/23 06:31:20;;;;;;;1.92;1.27;;;;;;;18.77;48.70;96338.84;10183626;29;20052;-81
2022/05/23 06:36:40;;;;;;;1.88;1.20;;;;;;;18.78;48.79;96357.41;10167032;29;20423;-81
2022/05/23 06:42:00;;;;;;;1.80;1.10;;;;;;;18.77;48.71;96345.00;10162475;29;20053;-81
2022/05/23 06:47:55;;;;;;;2.17;0.85;;;;;;;18.80;48.78;96348.19;10141525;29;20523;-81
2022/05/23 06:53:34;;;;;;;2.42;1.20;;;;;;;18.78;48.41;96343.13;10194003;29;20449;-81
2022/05/23 06:59:13;;;;;;;1.67;0.90;;;;;;;18.78;48.41;96332.34;10181220;29;20621;-82
2022/05/23 07:16:08;;;;;;;6.30;2.70;;;;;;;18.79;48.88;96325.78;10171823;29;20056;-81
2022/05/23 07:21:31;;;;;;;18.65;13.40;;;;;;;18.80;49.19;96319.31;10197472;29;20055;-81
2022/05/23 07:27:02;;;;;;;21.30;16.00;;;;;;;18.81;49.48;96325.50;10181510;29;20059;-81
2022/05/23 07:32:22;;;;;;;19.45;15.77;;;;;;;18.83;49.74;96334.06;10195253;29;20052;-81
2022/05/23 07:37:42;;;;;;;19.50;15.48;;;;;;;18.83;49.94;96334.84;10185553;29;20052;-81
2022/05/23 07:43:02;;;;;;;16.15;14.18;;;;;;;18.82;50.18;96335.16;10188770;29;20478;-81
2022/05/23 07:48:21;;;;;;;13.20;11.45;;;;;;;18.82;50.12;96332.47;10169298;29;20060;-81
2022/05/23 08:05:08;;;;;;;10.52;7.10;;;;;;;18.83;49.83;96336.75;10163801;29;20056;-85
2022/05/23 08:10:32;;;;;;;6.95;5.70;;;;;;;18.85;49.85;96331.81;10173675;29;20075;-84
2022/05/23 08:15:53;;;;;;;7.35;5.15;;;;;;;18.86;49.85;96328.00;10164906;29;20507;-85
2022/05/23 08:21:15;;;;;;;5.65;4.00;;;;;;;18.85;49.77;96321.81;10174992;29;20052;-83
2022/05/23 08:26:36;;;;;;;5.22;3.45;;;;;;;18.85;49.89;96319.09;10173163;29;20072;-83
2022/05/23 08:31:56;;;;;;;3.60;2.83;;;;;;;18.86;49.91;96318.00;10186885;29;20075;-83
2022/05/23 08:37:27;;;;;;;4.20;2.63;;;;;;;18.86;49.76;96312.59;10160317;29;20147;-83
2022/05/23 08:42:56;;;;;;;4.43;2.53;;;;;;;18.87;49.85;96306.06;10151982;29;20057;-83
2022/05/23 08:48:30;;;;;;;4.03;2.20;;;;;;;18.88;49.73;96309.56;10181355;29;20059;-83
2022/05/23 08:54:02;;;;;;;3.65;2.08;;;;;;;18.88;49.55;96309.56;10173767;29;20296;-83
2022/05/23 08:59:45;;;;;;;4.35;2.03;;;;;;;18.89;49.57;96311.16;10176384;29;20418;-83
2022/05/23 09:05:21;;;;;;;4.43;2.20;;;;;;;18.89;49.42;96311.16;10187009;29;20060;-83
2022/05/23 09:10:40;;;;;;;5.75;2.67;;;;;;;18.92;49.33;96315.88;10165498;29;20067;-83
2022/05/23 09:16:04;;;;;;;7.53;2.60;;;;;;;18.92;49.43;96302.41;10179071;29;20052;-84
2022/05/23 09:22:12;;;;;;;5.00;2.10;;;;;;;18.93;49.50;96295.84;10186229;29;20069;-83
2022/05/23 09:27:11;;;;;;;6.30;2.33;;;;;;;18.93;49.48;96290.47;10140043;29;20573;-83
2022/05/23 09:32:54;;;;;;;4.90;2.30;;;;;;;18.93;49.46;96279.66;10171918;29;20127;-83
2022/05/23 09:38:19;;;;;;;8.23;2.67;;;;;;;18.95;49.53;96286.31;10164106;29;20115;-83
2022/05/23 09:49:31;;;;;;;9.67;2.97;;;;;;;18.95;49.37;96256.63;10158481;29;20127;-82
2022/05/23 09:54:55;;;;;;;5.95;2.40;;;;;;;18.98;49.46;96254.41;10182856;29;20112;-83
2022/05/23 10:00:18;;;;;;;6.15;2.10;;;;;;;18.98;49.27;96259.78;10165193;29;20106;-84
2022/05/23 10:05:38;;;;;;;4.10;2.30;;;;;;;18.98;49.42;96249.78;10182061;29;20067;-84
2022/05/23 10:11:04;;;;;;;4.45;2.33;;;;;;;18.99;49.30;96237.84;10131351;29;20052;-84
2022/05/23 10:16:30;;;;;;;6.20;2.50;;;;;;;18.98;49.40;96228.19;10159778;29;20063;-83
2022/05/23 10:22:06;;;;;;;4.80;2.10;;;;;;;19.00;49.29;96220.53;10180043;29;20047;-84
2022/05/23 10:27:55;;;;;;;6.10;2.90;;;;;;;19.00;49.49;96220.53;10165621;29;20080;-83
2022/05/23 10:33:14;;;;;;;5.68;2.53;;;;;;;19.00;49.93;96209.75;10168966;29;20059;-84
2022/05/23 10:44:35;;;;;;;4.03;2.10;;;;;;;18.99;49.98;96186.56;10168116;29;20048;-84
2022/05/23 10:50:20;;;;;;;3.90;1.90;;;;;;;19.02;50.06;96180.50;10173927;29;20068;-83
2022/05/23 10:55:58;;;;;;;2.47;1.70;;;;;;;19.02;50.05;96161.59;10190060;29;20051;-83
2022/05/23 11:01:27;;;;;;;2.10;1.75;;;;;;;19.03;49.76;96149.66;10210989;29;20048;-83
2022/05/23 11:06:59;;;;;;;2.17;1.40;;;;;;;19.04;49.77;96142.38;10162951;29;20083;-83
2022/05/23 11:12:28;;;;;;;2.65;1.60;;;;;;;19.04;49.75;96126.97;10185467;29;20476;-83
2022/05/23 11:18:06;;;;;;;;;;;;;;;19.04;49.82;96110.75;10176730;29;20056;-83
2022/05/23 11:23:28;;;;;;;2.80;1.50;;;;;;;19.06;49.61;96100.41;10161484;29;19927;-84
2022/05/23 11:34:56;;;;;;;2.08;1.23;;;;;;;19.10;49.50;96062.72;10178690;29;20052;-84
2022/05/23 11:40:24;;;;;;;3.83;1.33;;;;;;;19.11;49.45;96048.09;10190671;29;20062;-83
2022/05/23 11:46:00;;;;;;;2.45;1.40;;;;;;;19.11;49.28;96037.28;10200166;29;20055;-83
2022/05/23 11:51:36;;;;;;;2.17;1.35;;;;;;;19.08;49.37;96019.09;10189697;29;20056;-83
2022/05/23 11:57:05;;;;;;;2.78;1.30;;;;;;;19.05;49.25;96038.66;10162127;29;20048;-84
2022/05/23 12:02:26;;;;;;;2.17;1.67;;;;;;;19.02;49.18;96048.22;10167461;29;20440;-83
2022/05/23 12:07:56;;;;;;;2.75;1.20;;;;;;;19.02;49.12;96045.53;10183004;29;20484;-83
2022/05/23 12:13:37;;;;;;;1.70;1.35;;;;;;;19.02;48.71;96050.94;10176405;29;20048;-83
2022/05/23 12:19:36;;;;;;;1.80;1.30;;;;;;;19.02;48.84;96059.03;10163550;29;20063;-83
2022/05/23 12:24:58;;;;;;;2.80;1.30;;;;;;;19.00;48.75;96045.09;10148447;29;20056;-83
2022/05/23 12:30:17;;;;;;;2.17;1.40;;;;;;;19.01;48.66;96040.47;10187721;29;20068;-83
2022/05/23 12:35:36;;;;;;;2.00;1.40;;;;;;;19.01;48.30;96030.44;10172885;29;20059;-83
2022/05/23 12:41:14;;;;;;;2.28;1.50;;;;;;;19.03;48.22;96030.09;10187900;29;20150;-83
2022/05/23 12:47:11;;;;;;;2.70;1.20;;;;;;;19.05;48.00;96028.66;10186729;29;20044;-83
2022/05/23 12:52:55;;;;;;;2.25;1.40;;;;;;;19.05;48.14;96015.16;10184357;29;20099;-83
2022/05/23 12:58:41;;;;;;;1.63;1.30;;;;;;;19.05;48.24;95998.16;10176439;29;20048;-83
2022/05/23 13:04:07;;;;;;;1.38;1.20;;;;;;;19.04;48.36;95986.59;10160030;29;20055;-83
2022/05/23 13:09:37;;;;;;;2.35;1.30;;;;;;;19.04;48.18;95975.00;10172131;29;20056;-83
2022/05/23 13:14:58;;;;;;;1.65;1.17;;;;;;;19.04;48.25;95978.50;10181497;29;20464;-83
2022/05/23 13:26:12;;;;;;;1.77;1.10;;;;;;;19.06;48.02;95980.84;10169555;29;20500;-83
2022/05/23 13:31:35;;;;;;;2.00;1.38;;;;;;;19.06;48.11;95984.34;10170909;29;20060;-83
2022/05/23 13:36:56;;;;;;;2.67;1.13;;;;;;;19.04;48.08;95973.09;10177368;29;20063;-83
2022/05/23 13:42:24;;;;;;;1.92;1.30;;;;;;;19.05;47.80;95969.28;10184734;29;20060;-83
2022/05/23 13:47:55;;;;;;;1.80;1.23;;;;;;;19.05;47.60;95955.78;10186630;29;20059;-83
2022/05/23 13:53:20;;;;;;;1.55;1.15;;;;;;;19.06;47.63;95960.03;10157138;29;20119;-83
2022/05/23 13:59:03;;;;;;;1.40;1.13;;;;;;;19.08;47.73;95957.78;10172120;29;20048;-83
2022/05/23 14:04:27;;;;;;;3.05;1.40;;;;;;;19.08;47.79;95951.59;10182665;29;20063;-84
2022/05/23 14:09:51;;;;;;;1.38;1.10;;;;;;;19.08;47.68;95957.78;10171163;29;20138;-83
2022/05/23 14:15:11;;;;;;;1.73;1.15;;;;;;;19.10;47.56;95955.53;10157790;29;20059;-83
2022/05/23 14:20:39;;;;;;;1.98;1.13;;;;;;;19.15;47.32;95933.69;10184756;29;20052;-83
2022/05/23 14:26:05;;;;;;;1.95;1.27;;;;;;;19.18;47.24;95940.31;10168176;29;20056;-83
2022/05/23 14:31:46;;;;;;;2.63;1.13;;;;;;;19.18;47.20;95921.41;10168331;29;20059;-83
2022/05/23 14:37:09;;;;;;;1.48;1.10;;;;;;;19.20;47.31;95934.59;10159354;29;20048;-83
2022/05/23 14:42:35;;;;;;;2.78;1.00;;;;;;;19.27;46.67;95935.56;10168942;29;20052;-83
2022/05/23 14:47:59;;;;;;;1.80;1.10;;;;;;;19.33;46.57;95922.63;10171680;29;20086;-85
2022/05/23 15:04:59;;;;;;;3.50;1.30;;;;;;;19.32;47.00;95923.72;10157874;29;20476;-84
2022/05/23 15:10:18;;;;;;;1.48;1.15;;;;;;;19.33;47.48;95914.50;10146613;29;20463;-84
2022/05/23 15:15:38;;;;;;;1.77;1.38;;;;;;;19.32;47.80;95912.94;10161982;29;20538;-82
2022/05/23 15:20:58;;;;;;;2.95;1.20;;;;;;;19.29;48.00;95917.09;10176006;29;20052;-84
2022/05/23 15:26:21;;;;;;;3.05;1.25;;;;;;;19.29;48.17;95916.34;10147286;29;20048;-83
2022/05/23 15:31:44;;;;;;;7.22;1.33;;;;;;;19.27;48.36;95918.59;10179071;29;20051;-84
2022/05/23 15:37:03;;;;;;;5.07;1.50;;;;;;;19.30;48.36;95910.56;10161630;29;20393;-85
2022/05/23 15:42:26;;;;;;;2.67;1.30;;;;;;;19.36;48.32;95916.50;10156111;29;20056;-85
2022/05/23 15:47:46;;;;;;;3.08;1.27;;;;;;;19.33;48.29;95918.00;10164765;29;20559;-83
2022/05/23 15:53:07;;;;;;;5.53;1.42;;;;;;;19.31;48.16;95905.97;10169460;29;20071;-83
2022/05/23 15:58:28;;;;;;;2.90;1.35;;;;;;;19.32;47.96;95888.63;10180698;29;20054;-85
2022/05/23 16:03:47;;;;;;;2.58;1.50;;;;;;;19.35;48.01;95901.44;10169536;29;20074;-84
2022/05/23 16:09:07;;;;;;;4.57;1.33;;;;;;;19.33;48.33;95903.72;10179926;29;20056;-85
2022/05/23 16:14:29;;;;;;;3.75;1.25;;;;;;;19.30;48.41;95893.59;10163908;29;20052;-85
2022/05/23 16:19:49;;;;;;;4.13;1.33;;;;;;;19.26;47.79;95890.00;10161467;29;20048;-84
2022/05/23 16:25:09;;;;;;;1.95;1.30;;;;;;;19.25;48.07;95888.41;10167922;29;20128;-84
2022/05/23 16:30:37;;;;;;;5.10;1.48;;;;;;;19.24;48.02;95874.13;10159569;29;20056;-83
2022/05/23 16:41:36;;;;;;;2.88;1.30;;;;;;;19.25;47.88;95869.50;10162556;29;20506;-82
2022/05/23 16:46:56;;;;;;;3.67;1.15;;;;;;;19.24;47.90;95852.53;10173340;29;20077;-82
2022/05/23 16:52:15;;;;;;;4.88;1.38;;;;;;;19.24;48.32;95843.66;10191220;29;20049;-82
2022/05/23 16:57:35;;;;;;;3.13;1.60;;;;;;;19.26;49.25;95833.31;10170890;29;20049;-82
2022/05/23 17:02:54;;;;;;;4.45;1.63;;;;;;;19.27;49.62;95841.06;10171673;29;20447;-83
2022/05/23 17:08:14;;;;;;;3.13;1.33;;;;;;;19.26;49.78;95828.69;10169751;29;20051;-82
2022/05/23 17:13:35;;;;;;;3.20;1.40;;;;;;;19.25;49.60;95831.72;10166258;29;20127;-82
2022/05/23 17:18:54;;;;;;;3.10;1.30;;;;;;;19.23;49.56;95836.69;10168039;29;20064;-82
2022/05/23 17:24:14;;;;;;;1.67;1.23;;;;;;;19.22;49.53;95832.41;10163993;29;20049;-82
2022/05/23 17:29:34;;;;;;;3.05;1.10;;;;;;;19.24;49.32;95840.97;10173420;29;20048;-86
2022/05/23 17:34:56;;;;;;;3.65;1.25;;;;;;;19.22;49.26;95840.53;10166490;29;20531;-88
2022/05/23 17:40:17;;;;;;;2.78;1.05;;;;;;;19.22;49.27;95829.72;10158840;29;20059;-88
2022/05/23 17:45:37;;;;;;;2.15;1.10;;;;;;;19.22;49.27;95814.31;10157123;29;20079;-84
2022/05/23 17:50:57;;;;;;;1.95;1.10;;;;;;;19.22;49.07;95805.41;10159332;29;20067;-86
2022/05/23 17:56:20;;;;;;;2.10;1.20;;;;;;;19.22;48.89;95797.31;10175295;29;20059;-85
2022/05/23 18:01:39;;;;;;;2.90;1.20;;;;;;;19.22;48.53;95789.22;10175306;29;20103;-86
2022/05/23 18:06:59;;;;;;;1.40;1.20;;;;;;;19.22;48.91;95786.53;10165482;29;20056;-86
2022/05/23 18:12:18;;;;;;;2.05;1.17;;;;;;;19.21;48.19;95791.16;10159960;29;20147;-86
2022/05/23 18:23:16;;;;;;;4.95;1.30;;;;;;;19.19;48.01;95774.50;10172715;29;20103;-87
2022/05/23 18:28:35;;;;;;;1.70;1.20;;;;;;;19.19;48.18;95758.31;10162271;29;20460;-86
2022/05/23 18:33:54;;;;;;;2.97;1.40;;;;;;;19.19;48.47;95774.50;10154370;29;20064;-85
2022/05/23 18:39:16;;;;;;;4.93;1.27;;;;;;;19.20;48.46;95788.78;10180593;29;20056;-83
2022/05/23 18:44:39;;;;;;;2.28;1.10;;;;;;;19.20;48.46;95788.78;10171467;29;20055;-87
2022/05/23 18:49:59;;;;;;;1.80;1.10;;;;;;;19.20;48.82;95776.06;10135576;29;20063;-85
2022/05/23 18:55:19;;;;;;;1.92;1.38;;;;;;;19.20;48.76;95757.16;10160427;29;20080;-85
2022/05/23 19:00:39;;;;;;;1.88;1.33;;;;;;;19.20;48.58;95716.66;10194082;29;20041;-86
2022/05/23 19:05:59;;;;;;;3.08;1.38;;;;;;;19.20;48.59;95681.56;10172346;29;20820;-86
2022/05/23 19:11:19;;;;;;;2.17;1.33;;;;;;;19.20;48.67;95653.78;10156416;29;20545;-85
2022/05/23 19:16:39;;;;;;;1.50;1.20;;;;;;;19.20;49.05;95686.19;10142107;29;20514;-85
2022/05/23 19:22:04;;;;;;;3.13;1.20;;;;;;;19.20;48.84;95710.50;10147296;29;20060;-85
2022/05/23 19:27:24;;;;;;;2.20;1.30;;;;;;;19.20;48.91;95730.16;10170443;29;20419;-86
2022/05/23 19:32:43;;;;;;;2.33;1.35;;;;;;;19.20;49.02;95716.66;10174294;29;20052;-85
2022/05/23 19:38:03;;;;;;;2.75;1.50;;;;;;;19.21;49.11;95749.84;10172844;29;20056;-86
2022/05/23 19:43:23;;;;;;;4.43;1.67;;;;;;;19.21;49.29;95760.63;10167908;29;20040;-83
2022/05/23 19:48:42;;;;;;;4.20;1.65;;;;;;;19.22;49.35;95795.41;10176198;29;20496;-82
2022/05/23 19:54:02;;;;;;;5.63;1.80;;;;;;;19.24;49.51;95808.56;10175177;29;20056;-81
2022/05/23 19:59:21;;;;;;;2.42;1.60;;;;;;;19.22;49.66;95816.22;10171728;29;20142;-81
2022/05/23 20:10:19;;;;;;;2.60;1.70;;;;;;;19.22;49.59;95864.81;10182562;29;20056;-82
2022/05/23 20:15:39;;;;;;;2.45;1.58;;;;;;;19.20;49.73;95881.38;10169584;29;20053;-82
2022/05/23 20:20:59;;;;;;;3.63;1.33;;;;;;;19.23;49.93;95874.47;10159598;29;20523;-81
2022/05/23 20:26:19;;;;;;;3.28;1.40;;;;;;;19.24;49.67;95867.97;10158512;29;20063;-82
2022/05/23 20:31:42;;;;;;;2.60;1.48;;;;;;;19.25;49.80;95864.13;10184895;29;20056;-82
2022/05/23 20:37:03;;;;;;;3.10;1.73;;;;;;;19.23;49.92;95840.19;10177839;29;20056;-82
2022/05/23 20:42:23;;;;;;;2.63;1.70;;;;;;;19.24;49.83;95846.38;10154261;29;20058;-81
2022/05/23 20:47:44;;;;;;;1.85;1.20;;;;;;;19.25;49.95;95850.63;10168963;29;20044;-82
2022/05/23 20:53:03;;;;;;;4.20;1.30;;;;;;;19.25;50.05;95831.72;10159756;29;20060;-82
2022/05/23 20:58:23;;;;;;;2.40;1.40;;;;;;;19.25;50.09;95850.63;10184263;29;20044;-82
2022/05/23 21:03:43;;;;;;;11.52;1.95;;;;;;;19.26;50.17;95852.19;10178315;29;20048;-82
2022/05/23 21:09:02;;;;;;;2.40;1.20;;;;;;;19.25;50.18;95859.53;10153795;29;20052;-82
2022/05/23 21:14:27;;;;;;;2.42;1.30;;;;;;;19.25;50.09;95848.72;10176477;29;20052;-82
2022/05/23 21:19:50;;;;;;;2.65;1.42;;;;;;;19.26;50.22;95865.69;10168958;29;20083;-82
2022/05/23 21:25:19;;;;;;;3.03;1.50;;;;;;;19.26;50.05;95879.97;10173288;29;20048;-82
2022/05/23 21:30:40;;;;;;;1.42;1.30;;;;;;;19.25;50.23;95878.44;10176488;29;20048;-82
2022/05/23 21:36:00;;;;;;;1.33;1.23;;;;;;;19.27;50.17;95853.78;10186009;29;20085;-81
2022/05/23 21:46:57;;;;;;;1.40;1.20;;;;;;;19.25;49.85;95827.13;10169733;29;20066;-81
2022/05/23 21:52:20;;;;;;;2.20;1.35;;;;;;;19.27;50.27;95810.59;10176562;29;20079;-81
2022/05/23 21:57:40;;;;;;;1.17;1.13;;;;;;;19.25;50.15;95789.31;10165883;29;20053;-81
2022/05/23 22:03:00;;;;;;;1.50;1.20;;;;;;;19.25;50.25;95767.72;10147917;29;20049;-81
2022/05/23 22:08:19;;;;;;;1.83;1.15;;;;;;;19.25;50.25;95719.13;10172880;29;20049;-81
2022/05/23 22:13:42;;;;;;;4.45;1.35;;;;;;;19.26;50.25;95725.28;10172505;29;20051;-81
2022/05/23 22:19:02;;;;;;;1.60;1.50;;;;;;;19.25;50.21;95739.91;10154738;29;20056;-81
2022/05/23 22:24:24;;;;;;;1.27;1.17;;;;;;;19.26;50.29;95728.00;10158258;29;20401;-81
2022/05/23 22:29:43;;;;;;;2.35;1.40;;;;;;;19.25;50.21;95724.50;10167709;29;20056;-82
2022/05/23 22:35:03;;;;;;;1.45;1.20;;;;;;;19.24;50.29;95728.34;10190825;29;20134;-81
2022/05/23 22:40:23;;;;;;;1.27;1.17;;;;;;;19.24;50.36;95712.13;10178096;29;20060;-81
2022/05/23 22:45:43;;;;;;;1.58;1.10;;;;;;;19.25;50.23;95700.22;10177575;29;20044;-81
2022/05/23 22:51:02;;;;;;;1.73;1.13;;;;;;;19.25;50.11;95702.09;10188567;29;20055;-81
2022/05/23 22:56:23;;;;;;;1.20;1.10;;;;;;;19.25;50.21;95700.22;10194705;29;20056;-81
2022/05/23 23:01:42;;;;;;;1.80;1.30;;;;;;;19.26;50.37;95717.19;10176833;29;20056;-81
2022/05/23 23:07:03;;;;;;;1.40;1.23;;;;;;;19.25;50.36;95721.00;10169104;29;20107;-82
2022/05/23 23:12:23;;;;;;;1.60;1.10;;;;;;;19.25;50.55;95712.91;10191091;29;20078;-81
2022/05/23 23:17:42;;;;;;;4.60;1.77;;;;;;;19.25;50.48;95712.91;10159217;29;20055;-81
2022/05/23 23:23:01;;;;;;;1.92;1.42;;;;;;;19.25;50.37;95708.31;10176069;29;20512;-81
2022/05/23 23:28:20;;;;;;;1.38;1.05;;;;;;;19.25;50.43;95705.63;10167854;29;20052;-81
2022/05/23 23:39:18;;;;;;;;;;;;;;;19.26;50.36;95706.38;10184041;29;20059;-81
2022/05/23 23:44:39;;;;;;;1.70;1.02;;;;;;;19.26;50.48;95714.50;10171721;29;19928;-81
2022/05/23 23:49:59;;;;;;;1.20;1.10;;;;;;;19.25;50.54;95716.41;10160584;29;20063;-82
2022/05/23 23:55:18;;;;;;;1.40;1.05;;;;;;;19.25;50.42;95718.31;10179383;29;20063;-81
